Time;durP1;ratioP1;P1;durP2;ratioP2;P2;SDS_P1;SDS_P2;PMS_P1;PMS_P2;Temp;Humidity;BMP_temperature;BMP_pressure;BME280_temperature;BME280_humidity;BME280_pressure;Samples;Min_cycle;Max_cycle;Signal;HPM_P1;HPM_P2
2022/12/07 00:01:13;;;;;;;;;55.00;46.50;;;;;5.82;69.54;101336.72;4996652;28;45554;-61
2022/12/07 00:03:40;;;;;;;;;56.00;45.00;;;;;5.82;69.46;101334.09;4979056;28;45844;-62
2022/12/07 00:06:07;;;;;;;;;57.75;47.25;;;;;5.82;69.55;101341.94;4996674;28;45480;-60
2022/12/07 00:08:34;;;;;;;;;58.25;45.00;;;;;5.78;69.84;101333.25;4996731;28;45543;-62
2022/12/07 00:11:11;;;;;;;;;58.50;46.00;;;;;5.76;69.81;101332.38;4996552;28;46402;-61
2022/12/07 00:13:37;;;;;;;;;59.50;46.25;;;;;5.76;69.70;101338.47;4996623;28;46141;-61
2022/12/07 00:16:08;;;;;;;;;58.25;48.00;;;;;5.74;69.84;101328.91;4996531;28;45561;-61
2022/12/07 00:18:33;;;;;;;;;53.50;45.75;;;;;5.71;69.59;101321.09;4996769;28;45464;-61
2022/12/07 00:21:09;;;;;;;;;54.50;44.25;;;;;5.73;69.75;101328.03;4996533;28;45502;-61
2022/12/07 00:23:35;;;;;;;;;49.75;43.00;;;;;5.70;69.61;101327.19;4996390;28;45448;-61
2022/12/07 00:26:10;;;;;;;;;47.50;40.50;;;;;5.74;69.75;101323.69;4997482;28;45532;-61
2022/12/07 00:28:36;;;;;;;;;55.50;46.00;;;;;5.72;69.85;101321.09;4995526;28;45597;-60
2022/12/07 00:31:07;;;;;;;;;49.00;43.75;;;;;5.68;69.99;101318.50;4996221;28;45510;-61
2022/12/07 00:33:33;;;;;;;;;55.25;45.50;;;;;5.65;70.00;101319.38;4995952;28;45496;-61
2022/12/07 00:35:59;;;;;;;;;52.00;43.50;;;;;5.62;70.02;101321.13;4996504;28;45660;-61
2022/12/07 00:38:29;;;;;;;;;48.00;42.50;;;;;5.61;69.89;101325.44;4996176;28;45562;-61
2022/12/07 00:41:00;;;;;;;;;58.50;47.00;;;;;5.59;70.23;101322.00;4995341;28;46324;-60
2022/12/07 00:43:26;;;;;;;;;63.00;48.00;;;;;5.61;70.53;101324.59;4996072;28;45553;-60
2022/12/07 00:45:52;;;;;;;;;57.75;45.75;;;;;5.55;70.14;101315.06;4996183;28;45521;-61
2022/12/07 00:48:18;;;;;;;;;56.75;44.75;;;;;5.56;70.04;101318.53;4996238;28;45519;-61
2022/12/07 00:50:43;;;;;;;;;55.50;44.25;;;;;5.57;70.35;101315.91;4995793;28;45510;-61
2022/12/07 00:53:08;;;;;;;;;55.50;42.25;;;;;5.57;70.20;101315.06;4995881;28;45471;-60
2022/12/07 00:55:35;;;;;;;;;55.75;45.25;;;;;5.58;70.35;101311.56;4996136;28;45560;-61
2022/12/07 00:58:01;;;;;;;;;50.00;41.50;;;;;5.56;70.20;101310.69;4996043;28;45606;-61
2022/12/07 01:00:26;;;;;;;;;55.00;44.75;;;;;5.60;70.31;101312.44;4995809;28;46130;-61
2022/12/07 01:02:52;;;;;;;;;54.00;42.75;;;;;5.60;70.50;101309.81;4995644;28;45504;-61
2022/12/07 01:05:17;;;;;;;;;49.25;41.00;;;;;5.60;70.33;101304.59;4996098;28;45591;-61
2022/12/07 01:07:43;;;;;;;;;48.75;43.00;;;;;5.60;70.71;101299.38;4995253;28;45632;-60
2022/12/07 01:10:09;;;;;;;;;51.00;40.75;;;;;5.62;70.36;101303.72;4995439;28;46011;-61
2022/12/07 01:12:34;;;;;;;;;48.00;43.25;;;;;5.62;70.63;101302.88;4995520;28;45548;-61
2022/12/07 01:14:59;;;;;;;;;54.50;44.50;;;;;5.65;70.48;101306.31;4995705;28;45459;-61
2022/12/07 01:17:25;;;;;;;;;53.50;41.00;;;;;5.66;70.97;101301.97;4995664;28;45615;-61
2022/12/07 01:19:50;;;;;;;;;46.75;40.00;;;;;5.67;70.64;101301.97;4995244;28;45499;-61
2022/12/07 01:22:15;;;;;;;;;47.75;41.00;;;;;5.65;70.62;101302.84;4996141;28;45507;-61
2022/12/07 01:24:41;;;;;;;;;49.75;43.25;;;;;5.65;70.65;101311.53;4995591;28;45536;-61
2022/12/07 01:27:06;;;;;;;;;46.75;39.50;;;;;5.65;70.62;101302.84;4995517;28;45495;-60
2022/12/07 01:29:31;;;;;;;;;43.75;38.25;;;;;5.66;70.27;101310.66;4995529;28;46070;-61
2022/12/07 01:31:57;;;;;;;;;53.50;44.00;;;;;5.65;70.34;101302.84;4995310;28;45517;-60
2022/12/07 01:34:22;;;;;;;;;41.25;37.50;;;;;5.64;70.35;101295.88;4995304;28;46214;-61
2022/12/07 01:36:47;;;;;;;;;48.00;41.50;;;;;5.63;70.37;101294.16;4995450;28;45730;-61
2022/12/07 01:39:13;;;;;;;;;49.75;40.50;;;;;5.60;70.48;101291.56;4994917;28;46089;-60
2022/12/07 01:41:42;;;;;;;;;51.00;40.75;;;;;5.61;70.65;101295.88;4994952;28;45551;-61
2022/12/07 01:44:21;;;;;;;;;51.50;40.75;;;;;5.59;70.48;101293.31;4995262;28;45428;-61
2022/12/07 01:46:57;;;;;;;;;50.25;43.00;;;;;5.60;70.45;101292.41;4995292;28;45576;-60
2022/12/07 01:49:25;;;;;;;;;46.00;41.50;;;;;5.58;70.62;101285.47;4994920;28;45426;-60
2022/12/07 01:51:57;;;;;;;;;49.00;43.50;;;;;5.56;70.14;101293.28;4995144;28;45540;-60
2022/12/07 01:54:22;;;;;;;;;47.75;42.00;;;;;5.53;70.62;101286.38;4994939;28;45590;-60
2022/12/07 01:56:53;;;;;;;;;51.75;41.50;;;;;5.51;70.61;101298.53;4995138;28;45575;-61
2022/12/07 01:59:21;;;;;;;;;54.25;43.00;;;;;5.51;70.58;101297.69;4994850;28;46032;-60
2022/12/07 02:01:47;;;;;;;;;51.50;43.50;;;;;5.42;70.35;101280.28;4995043;28;45422;-60
2022/12/07 02:04:12;;;;;;;;;54.25;43.00;;;;;5.36;70.42;101287.28;4994682;28;45457;-60
2022/12/07 02:06:38;;;;;;;;;51.25;42.25;;;;;5.35;70.71;101280.31;4995247;28;45557;-60
2022/12/07 02:09:04;;;;;;;;;49.25;42.00;;;;;5.28;70.25;101296.00;4994505;28;45606;-60
2022/12/07 02:11:29;;;;;;;;;54.75;43.75;;;;;5.22;70.13;101297.75;4994759;28;46025;-60
2022/12/07 02:13:55;;;;;;;;;37.75;34.00;;;;;5.18;70.17;101281.22;4994957;28;45424;-61
2022/12/07 02:16:35;;;;;;;;;51.50;42.50;;;;;5.15;70.44;101296.88;4994759;28;45421;-60
2022/12/07 02:19:38;;;;;;;;;48.25;40.75;;;;;5.10;70.38;101296.03;4994983;28;46053;-60
2022/12/07 02:22:18;;;;;;;;;43.50;39.25;;;;;5.11;70.05;101300.38;4995069;28;45520;-60
2022/12/07 02:25:01;;;;;;;;;38.00;33.50;;;;;5.05;70.29;101297.75;4994619;28;46302;-60
2022/12/07 02:27:33;;;;;;;;;42.75;38.25;;;;;5.02;70.41;101300.38;4994570;28;45501;-60
2022/12/07 02:30:08;;;;;;;;;51.00;39.75;;;;;5.01;70.35;101296.03;4994417;28;45496;-60
2022/12/07 02:32:58;;;;;;;;;49.75;40.75;;;;;5.00;70.52;101295.19;4984872;28;45559;-61
2022/12/07 02:35:36;;;;;;;;;41.75;38.00;;;;;5.01;70.80;101289.09;4994490;28;45537;-60
2022/12/07 02:38:26;;;;;;;;;51.50;40.75;;;;;4.99;70.85;101285.59;4994496;28;45436;-60
2022/12/07 02:41:01;;;;;;;;;39.25;37.75;;;;;4.96;71.00;101283.00;4994685;28;46308;-60
2022/12/07 02:43:30;;;;;;;;;39.25;36.75;;;;;4.98;70.78;101289.09;4994288;28;45509;-60
2022/12/07 02:46:10;;;;;;;;;46.25;38.75;;;;;4.99;70.83;101290.81;4994218;28;45527;-60
2022/12/07 02:48:38;;;;;;;;;38.50;37.00;;;;;4.98;70.93;101283.03;4994279;28;45500;-61
2022/12/07 02:51:04;;;;;;;;;48.25;39.75;;;;;5.00;70.44;101286.50;4994620;28;46582;-61
2022/12/07 02:53:32;;;;;;;;;40.75;36.25;;;;;4.99;70.21;101285.59;4997787;28;45480;-61
2022/12/07 02:56:02;;;;;;;;;45.50;37.00;;;;;5.02;70.74;101284.72;4997908;28;45500;-61
2022/12/07 02:58:51;;;;;;;;;50.50;39.50;;;;;5.02;70.45;101285.63;4997929;28;45532;-61
2022/12/07 03:01:37;;;;;;;;;49.75;38.00;;;;;5.05;70.69;101288.22;4997253;28;45576;-60
2022/12/07 03:04:11;;;;;;;;;52.25;40.25;;;;;5.06;71.11;101291.69;4997700;28;45517;-60
2022/12/07 03:06:45;;;;;;;;;44.00;39.00;;;;;5.06;70.47;101282.13;4997618;28;45418;-60
2022/12/07 03:09:24;;;;;;;;;43.75;39.25;;;;;5.04;70.63;101283.88;4997401;28;45485;-61
2022/12/07 03:11:55;;;;;;;;;43.00;40.00;;;;;5.06;70.88;101283.88;4997660;28;46286;-60
2022/12/07 03:14:33;;;;;;;;;51.00;40.75;;;;;5.06;69.86;101279.53;4979522;28;45535;-60
2022/12/07 03:17:15;;;;;;;;;42.25;38.50;;;;;5.03;70.20;101276.06;4997840;28;45568;-60
2022/12/07 03:19:43;;;;;;;;;42.50;37.75;;;;;5.07;70.60;101276.03;4997434;28;45468;-60
2022/12/07 03:22:11;;;;;;;;;44.75;38.50;;;;;5.06;70.63;101263.88;4998024;28;46304;-60
2022/12/07 03:24:43;;;;;;;;;40.00;38.25;;;;;5.09;70.44;101273.44;4997245;28;45513;-60
2022/12/07 03:27:19;;;;;;;;;38.75;37.00;;;;;5.09;70.57;101266.47;4997300;28;45508;-60
2022/12/07 03:29:54;;;;;;;;;42.75;37.00;;;;;5.09;70.59;101260.41;4997361;28;45511;-60
2022/12/07 03:32:27;;;;;;;;;41.00;36.25;;;;;5.12;70.20;101257.78;4997113;28;45527;-60
2022/12/07 03:35:01;;;;;;;;;36.75;33.25;;;;;5.08;70.37;101251.72;4996983;28;45572;-60
2022/12/07 03:37:34;;;;;;;;;41.00;36.75;;;;;5.06;70.21;101258.66;4997308;28;45440;-60
2022/12/07 03:40:14;;;;;;;;;33.25;28.00;;;;;5.04;70.52;101251.72;4996943;28;45585;-61
2022/12/07 03:42:40;;;;;;;;;37.75;36.00;;;;;4.98;70.12;101247.38;4979310;28;46315;-61
2022/12/07 03:45:07;;;;;;;;;42.75;37.25;;;;;4.95;70.26;101241.31;4996911;28;45557;-60
2022/12/07 03:48:26;;;;;;;;;38.50;36.00;;;;;4.95;70.20;101241.31;4997104;28;45568;-60
2022/12/07 03:51:18;;;;;;;;;39.25;32.50;;;;;4.95;71.03;101250.00;4929972;28;45513;-61
2022/12/07 03:53:54;;;;;;;;;40.75;35.25;;;;;4.96;70.44;101238.69;4995063;28;46277;-60
2022/12/07 03:56:21;;;;;;;;;40.50;34.25;;;;;4.96;70.62;101245.66;4996851;28;45516;-61
2022/12/07 03:58:47;;;;;;;;;38.50;36.00;;;;;4.96;70.50;101243.06;4996826;28;45803;-60
2022/12/07 04:01:13;;;;;;;;;31.25;29.25;;;;;4.99;70.91;101237.81;4996850;28;45440;-60
2022/12/07 04:03:38;;;;;;;;;38.00;34.00;;;;;4.97;70.52;101243.06;4996754;28;45519;-60
2022/12/07 04:06:04;;;;;;;;;41.25;37.00;;;;;5.01;70.41;101243.91;4996665;28;45472;-60
2022/12/07 04:08:30;;;;;;;;;16.25;10.00;;;;;5.02;70.65;101248.25;4996854;28;45385;-60
2022/12/07 04:10:55;;;;;;;;;42.00;37.00;;;;;5.02;70.18;101243.91;4996674;28;45500;-60
2022/12/07 04:13:20;;;;;;;;;34.50;31.25;;;;;5.04;70.38;101246.50;4996430;28;46288;-60
2022/12/07 04:15:46;;;;;;;;;41.25;37.75;;;;;5.03;70.32;101255.22;4996382;28;45452;-60
2022/12/07 04:18:11;;;;;;;;;38.00;33.25;;;;;5.04;70.49;101249.97;4996729;28;45473;-60
2022/12/07 04:20:36;;;;;;;;;38.75;32.25;;;;;5.07;70.79;101249.09;4996607;28;45621;-60
2022/12/07 04:23:01;;;;;;;;;37.00;32.50;;;;;5.09;70.36;101234.34;4996889;28;46131;-61
2022/12/07 04:25:27;;;;;;;;;35.00;31.25;;;;;5.11;70.51;101230.00;4996496;28;45560;-60
2022/12/07 04:27:53;;;;;;;;;34.50;28.00;;;;;5.16;70.23;101232.56;4996621;28;45475;-60
2022/12/07 04:30:18;;;;;;;;;33.50;33.25;;;;;5.17;70.16;101235.19;4978543;28;45550;-60
2022/12/07 04:32:43;;;;;;;;;36.50;31.00;;;;;5.19;70.58;101232.59;4996204;28;46332;-61
2022/12/07 04:35:09;;;;;;;;;34.50;31.25;;;;;5.21;70.55;101236.03;4996165;28;45393;-60
2022/12/07 04:37:34;;;;;;;;;34.50;30.25;;;;;5.21;70.11;101230.81;4996421;28;45470;-60
2022/12/07 04:40:00;;;;;;;;;28.50;26.75;;;;;5.23;70.15;101242.09;4996261;28;45702;-60
2022/12/07 04:42:25;;;;;;;;;29.50;28.50;;;;;5.22;70.12;101245.59;4996033;28;46126;-60
2022/12/07 04:44:50;;;;;;;;;38.75;34.50;;;;;5.22;70.05;101243.00;4996135;28;45421;-60
2022/12/07 04:47:16;;;;;;;;;38.75;32.50;;;;;5.19;70.22;101235.19;4996187;28;45532;-60
2022/12/07 04:49:41;;;;;;;;;37.00;33.50;;;;;5.20;70.21;101234.31;4996026;28;45670;-60
2022/12/07 04:52:07;;;;;;;;;32.50;29.75;;;;;5.21;70.14;101239.53;4995906;28;45545;-60
2022/12/07 04:54:32;;;;;;;;;30.00;26.50;;;;;5.20;70.23;101234.31;4996146;28;45530;-60
2022/12/07 04:56:57;;;;;;;;;31.25;28.75;;;;;5.19;70.27;101245.63;4996004;28;45815;-60
2022/12/07 04:59:23;;;;;;;;;30.00;28.00;;;;;5.19;70.21;101233.44;4996178;28;45471;-60
2022/12/07 05:01:48;;;;;;;;;32.00;25.75;;;;;5.15;70.30;101231.69;4995688;28;46052;-60
2022/12/07 05:04:13;;;;;;;;;36.75;30.25;;;;;5.16;70.04;101235.16;4995655;28;45552;-60
2022/12/07 05:06:39;;;;;;;;;36.25;31.75;;;;;5.16;70.11;101238.66;4996033;28;45459;-60
2022/12/07 05:09:04;;;;;;;;;29.50;27.75;;;;;5.13;70.08;101230.84;4995536;28;45564;-60
2022/12/07 05:11:39;;;;;;;;;27.75;26.00;;;;;5.09;70.34;101236.94;4995548;28;45434;-60
2022/12/07 05:14:11;;;;;;;;;32.50;28.00;;;;;5.07;70.21;101229.09;4994822;28;45495;-60
2022/12/07 05:16:37;;;;;;;;;31.50;27.25;;;;;5.06;70.38;101229.13;4995786;28;45361;-60
2022/12/07 05:19:03;;;;;;;;;34.75;31.75;;;;;5.08;70.27;101227.41;4995531;28;46190;-60
2022/12/07 05:21:28;;;;;;;;;33.00;31.50;;;;;5.07;70.35;101233.47;4996091;28;46307;-60
2022/12/07 05:23:54;;;;;;;;;30.50;27.25;;;;;5.10;70.43;101233.44;4995491;28;45425;-60
2022/12/07 05:26:19;;;;;;;;;38.50;32.75;;;;;5.12;70.13;101242.13;4995383;28;45520;-60
2022/12/07 05:28:44;;;;;;;;;35.75;27.50;;;;;5.09;70.17;101235.19;4995471;28;45524;-60
2022/12/07 05:31:10;;;;;;;;;31.00;28.00;;;;;5.03;70.09;101235.22;4995159;28;46146;-60
2022/12/07 05:33:35;;;;;;;;;33.75;32.00;;;;;5.03;70.04;101234.34;4995207;28;45520;-60
2022/12/07 05:36:05;;;;;;;;;35.25;33.50;;;;;5.06;70.05;101255.19;4995532;28;45516;-61
2022/12/07 05:38:32;;;;;;;;;35.00;34.00;;;;;5.06;70.22;101252.59;4995372;28;45496;-60
2022/12/07 05:41:01;;;;;;;;;35.75;33.25;;;;;5.08;70.38;101253.47;4995344;28;45543;-60
2022/12/07 05:43:26;;;;;;;;;26.75;26.00;;;;;5.09;70.31;101250.84;4994998;28;45539;-60
2022/12/07 05:45:52;;;;;;;;;32.25;32.25;;;;;5.08;69.93;101249.13;4995368;28;45369;-61
2022/12/07 05:48:17;;;;;;;;;34.50;32.75;;;;;5.13;70.34;101245.59;4995249;28;45441;-60
2022/12/07 05:50:42;;;;;;;;;29.75;29.75;;;;;5.12;70.19;101239.53;4994881;28;45419;-61
2022/12/07 05:53:08;;;;;;;;;40.25;32.00;;;;;5.16;70.15;101241.28;4995098;28;45448;-61
2022/12/07 05:55:33;;;;;;;;;36.25;31.25;;;;;5.19;69.95;101241.25;4994773;28;45438;-61
2022/12/07 06:00:42;;;;;;;;;26.00;24.00;;;;;5.21;70.44;101241.25;4994851;28;45879;-61
2022/12/07 06:03:08;;;;;;;;;26.00;26.00;;;;;5.23;70.05;101237.75;4994817;28;45398;-61
2022/12/07 06:05:33;;;;;;;;;30.00;25.75;;;;;5.23;69.38;101234.28;4990512;28;45612;-61
2022/12/07 06:07:58;;;;;;;;;32.25;29.00;;;;;5.22;70.10;101233.44;4995318;28;45595;-61
2022/12/07 06:10:24;;;;;;;;;30.25;29.25;;;;;5.24;69.82;101239.50;4994535;28;48395;-61
2022/12/07 06:12:49;;;;;;;;;23.25;21.50;;;;;5.24;69.90;101242.13;4994753;28;45381;-61
2022/12/07 06:15:15;;;;;;;;;30.25;27.50;;;;;5.24;69.86;101244.72;4994995;28;45453;-61
2022/12/07 06:17:40;;;;;;;;;35.25;31.00;;;;;5.24;69.94;101241.25;4994977;28;45510;-61
2022/12/07 06:20:06;;;;;;;;;25.75;24.25;;;;;5.23;69.76;101236.91;4994539;28;45527;-61
2022/12/07 06:22:31;;;;;;;;;31.75;29.00;;;;;5.21;70.20;101226.50;4995235;28;45527;-61
2022/12/07 06:24:57;;;;;;;;;30.75;30.50;;;;;5.25;69.77;101233.41;4994421;28;45491;-62
2022/12/07 06:27:22;;;;;;;;;38.00;32.00;;;;;5.22;69.87;101236.03;4993891;28;45678;-60
2022/12/07 06:29:48;;;;;;;;;35.00;32.00;;;;;5.16;69.86;101223.03;4994396;28;46019;-61
2022/12/07 06:32:13;;;;;;;;;30.25;27.75;;;;;5.07;70.21;101231.72;4994455;28;45512;-61
2022/12/07 06:34:38;;;;;;;;;35.25;29.25;;;;;5.06;70.41;101232.59;4994537;28;45481;-61
2022/12/07 06:37:04;;;;;;;;;30.50;28.75;;;;;5.07;71.18;101239.53;4994459;28;45522;-61
2022/12/07 06:39:30;;;;;;;;;34.25;32.75;;;;;5.09;70.32;101236.94;4976523;28;48015;-61
2022/12/07 06:41:56;;;;;;;;;29.75;29.75;;;;;5.09;70.78;101234.34;4994138;28;45419;-61
2022/12/07 06:44:23;;;;;;;;;40.50;33.50;;;;;5.06;71.21;101247.38;4993622;28;45499;-60
2022/12/07 06:46:49;;;;;;;;;37.50;33.00;;;;;5.04;70.83;101246.50;4994065;28;45460;-60
2022/12/07 06:49:15;;;;;;;;;32.25;29.25;;;;;5.07;70.53;101247.34;4994453;28;46158;-60
2022/12/07 06:51:43;;;;;;;;;30.50;30.50;;;;;5.07;70.51;101246.50;4994113;28;45513;-60
2022/12/07 06:54:09;;;;;;;;;33.00;30.75;;;;;5.12;70.85;101243.88;4990898;28;45459;-59
2022/12/07 06:56:35;;;;;;;;;40.00;35.75;;;;;5.14;70.62;101250.84;4985650;28;45587;-59
2022/12/07 06:59:00;;;;;;;;;34.50;32.25;;;;;5.14;70.27;101247.38;4964399;28;46176;-60
2022/12/07 07:01:26;;;;;;;;;25.50;24.50;;;;;5.15;70.68;101249.94;4983548;28;45471;-60
2022/12/07 07:03:52;;;;;;;;;37.25;33.25;;;;;5.18;70.30;101249.94;4994214;28;45560;-60
2022/12/07 07:06:17;;;;;;;;;31.75;31.00;;;;;5.13;70.26;101250.81;4993728;28;45638;-60
2022/12/07 07:08:43;;;;;;;;;31.50;30.00;;;;;5.12;70.35;101254.31;4991455;28;45460;-60
2022/12/07 07:11:09;;;;;;;;;36.00;31.00;;;;;5.06;70.43;101245.63;4993672;28;45527;-61
2022/12/07 07:13:35;;;;;;;;;34.25;28.00;;;;;5.04;70.94;101246.50;4989687;28;45602;-61
2022/12/07 07:16:00;;;;;;;;;31.25;29.00;;;;;5.05;70.66;101248.22;4993721;28;45492;-61
2022/12/07 07:18:27;;;;;;;;;32.00;29.00;;;;;5.03;70.66;101247.38;4992632;28;45458;-61
2022/12/07 07:20:52;;;;;;;;;31.75;26.75;;;;;4.99;70.72;101240.44;4994170;28;45501;-61
2022/12/07 07:23:18;;;;;;;;;37.00;31.75;;;;;4.97;70.71;101245.66;4994301;28;46034;-62
2022/12/07 07:25:44;;;;;;;;;32.50;30.00;;;;;5.00;70.92;101244.78;4992004;28;45540;-62
2022/12/07 07:28:09;;;;;;;;;30.25;28.75;;;;;5.02;70.61;101249.13;4989331;28;46199;-62
2022/12/07 07:30:35;;;;;;;;;33.75;30.75;;;;;5.05;70.47;101246.50;4993764;28;45458;-62
2022/12/07 07:33:02;;;;;;;;;34.25;32.50;;;;;5.00;70.58;101240.44;4993430;28;45587;-61
2022/12/07 07:35:29;;;;;;;;;33.00;32.25;;;;;5.03;70.44;101250.00;4993047;28;45607;-62
2022/12/07 07:37:54;;;;;;;;;40.50;36.00;;;;;5.04;70.48;101249.13;4994845;28;45495;-61
2022/12/07 07:40:20;;;;;;;;;32.50;28.25;;;;;4.95;70.54;101239.59;4996452;28;45515;-62
2022/12/07 07:42:50;;;;;;;;;21.25;20.25;;;;;5.04;70.72;101247.38;4996608;28;45535;-62
2022/12/07 07:45:15;;;;;;;;;36.50;31.00;;;;;5.06;70.52;101247.38;4995569;28;45530;-62
2022/12/07 07:47:41;;;;;;;;;35.25;31.75;;;;;5.11;70.25;101252.59;4996482;28;45936;-62
2022/12/07 07:50:06;;;;;;;;;34.00;30.75;;;;;5.13;71.09;101245.59;4996190;28;45477;-62
2022/12/07 07:52:32;;;;;;;;;32.00;30.50;;;;;5.15;70.82;101249.94;4978821;28;45436;-61
2022/12/07 07:54:57;;;;;;;;;35.50;31.50;;;;;5.17;70.78;101249.97;4996452;28;45528;-62
2022/12/07 07:57:23;;;;;;;;;30.75;28.00;;;;;5.15;70.36;101251.69;4996381;28;46238;-62
2022/12/07 07:59:48;;;;;;;;;34.00;34.00;;;;;5.13;70.62;101243.91;4996253;28;45441;-62
2022/12/07 08:02:16;;;;;;;;;33.75;32.00;;;;;5.15;70.44;101254.31;4996281;28;45600;-62
2022/12/07 08:04:42;;;;;;;;;33.25;31.50;;;;;5.15;70.76;101260.38;4996191;28;45511;-61
2022/12/07 08:07:07;;;;;;;;;26.25;24.50;;;;;5.18;70.68;101254.28;4995669;28;45516;-62
2022/12/07 08:09:32;;;;;;;;;41.25;35.75;;;;;5.21;70.51;101257.78;4995779;28;45511;-62
2022/12/07 08:11:58;;;;;;;;;34.00;29.25;;;;;5.23;70.44;101252.53;4996196;28;45528;-62
2022/12/07 08:14:24;;;;;;;;;35.75;33.50;;;;;5.23;70.53;101253.41;4995762;28;45661;-62
2022/12/07 08:16:49;;;;;;;;;30.50;28.00;;;;;5.20;70.65;101247.34;4977987;28;47681;-62
2022/12/07 08:19:15;;;;;;;;;34.50;29.00;;;;;5.16;70.50;101249.09;4995810;28;45478;-62
2022/12/07 08:21:40;;;;;;;;;36.50;31.75;;;;;5.23;70.86;101263.84;4995897;28;45482;-62
2022/12/07 08:24:05;;;;;;;;;31.00;29.75;;;;;5.25;70.38;101256.88;4996561;28;45537;-61
2022/12/07 08:26:31;;;;;;;;;32.25;29.00;;;;;5.26;70.63;101262.97;4995673;28;46187;-62
2022/12/07 08:28:56;;;;;;;;;32.00;32.00;;;;;5.27;70.48;101256.88;4995656;28;45491;-62
2022/12/07 08:31:22;;;;;;;;;38.75;33.00;;;;;5.30;70.43;101269.91;4995774;28;45453;-62
2022/12/07 08:33:48;;;;;;;;;31.50;31.00;;;;;5.33;70.25;101269.91;4995839;28;45574;-61
2022/12/07 08:36:14;;;;;;;;;37.75;32.00;;;;;5.36;70.49;101272.50;4995551;28;46100;-62
2022/12/07 08:38:41;;;;;;;;;29.25;28.25;;;;;5.37;70.67;101271.63;4995503;28;45496;-62
2022/12/07 08:41:07;;;;;;;;;28.75;27.75;;;;;5.41;71.00;101275.97;4995826;28;45448;-62
2022/12/07 08:43:33;;;;;;;;;30.00;30.00;;;;;5.43;70.34;101273.38;4995577;28;45710;-62
2022/12/07 08:46:17;;;;;;;;;34.00;31.50;;;;;5.41;70.47;101282.94;4995334;28;45524;-62
2022/12/07 08:48:57;;;;;;;;;34.00;30.00;;;;;5.42;70.47;101279.44;4994415;28;45463;-61
2022/12/07 08:51:23;;;;;;;;;36.25;31.25;;;;;5.45;70.44;101275.06;4995802;28;45565;-61
2022/12/07 08:53:51;;;;;;;;;31.25;30.00;;;;;5.45;69.83;101282.03;4977627;28;45602;-62
2022/12/07 08:56:17;;;;;;;;;26.50;26.25;;;;;5.46;70.53;101279.44;4995376;28;45518;-62
2022/12/07 08:58:42;;;;;;;;;30.25;29.75;;;;;5.48;70.20;101280.28;4994973;28;45386;-62
2022/12/07 09:01:08;;;;;;;;;26.25;25.75;;;;;5.47;70.02;101273.31;4995461;28;45489;-62
2022/12/07 09:03:34;;;;;;;;;26.75;26.25;;;;;5.51;70.07;101280.28;4995289;28;45484;-62
2022/12/07 09:05:59;;;;;;;;;29.00;27.00;;;;;5.49;70.28;101271.59;4994944;28;46116;-61
2022/12/07 09:08:38;;;;;;;;;29.00;26.25;;;;;5.48;70.00;101277.69;4994581;28;45438;-61
2022/12/07 09:11:04;;;;;;;;;35.00;31.50;;;;;5.49;70.47;101271.59;4994895;28;45574;-61
2022/12/07 09:13:29;;;;;;;;;32.25;29.00;;;;;5.52;69.97;101276.78;4995100;28;45469;-62
2022/12/07 09:15:54;;;;;;;;;28.50;27.00;;;;;5.49;70.71;101276.81;4995019;28;45501;-62
2022/12/07 09:18:20;;;;;;;;;27.25;24.75;;;;;5.53;70.12;101283.75;4994883;28;45447;-62
2022/12/07 09:20:45;;;;;;;;;30.50;28.00;;;;;5.54;70.13;101287.22;4995408;28;45489;-61
2022/12/07 09:23:11;;;;;;;;;35.75;30.50;;;;;5.55;70.18;101278.53;4995607;28;45661;-61
2022/12/07 09:25:36;;;;;;;;;28.00;25.00;;;;;5.57;70.33;101284.59;4994726;28;46309;-61
2022/12/07 09:28:02;;;;;;;;;32.00;27.25;;;;;5.61;70.18;101293.28;4994663;28;45418;-61
2022/12/07 09:30:28;;;;;;;;;29.25;28.25;;;;;5.61;70.05;101285.44;4994894;28;45522;-61
2022/12/07 09:32:55;;;;;;;;;29.25;27.00;;;;;5.60;70.06;101281.97;4994881;28;45555;-61
2022/12/07 09:35:21;;;;;;;;;26.25;24.50;;;;;5.61;69.71;101286.31;4994187;28;46368;-62
2022/12/07 09:37:46;;;;;;;;;25.50;25.25;;;;;5.58;70.16;101275.03;4994458;28;45489;-62
2022/12/07 09:40:14;;;;;;;;;27.50;21.50;;;;;5.62;70.15;101282.00;4994413;28;45515;-62
2022/12/07 09:42:44;;;;;;;;;30.50;30.50;;;;;5.64;70.13;101283.72;4994689;28;45581;-62
2022/12/07 09:45:24;;;;;;;;;17.75;13.00;;;;;5.64;70.41;101280.22;4994108;28;45555;-61
2022/12/07 09:47:50;;;;;;;;;32.00;28.50;;;;;5.67;70.18;101273.25;4994393;28;45593;-62
2022/12/07 09:50:19;;;;;;;;;27.75;25.50;;;;;5.70;70.36;101277.59;4994476;28;45554;-61
2022/12/07 09:52:47;;;;;;;;;27.50;27.00;;;;;5.72;70.16;101278.44;4994757;28;45456;-61
2022/12/07 09:55:15;;;;;;;;;31.50;27.75;;;;;5.74;70.02;101271.47;4993913;28;46022;-62
2022/12/07 09:57:42;;;;;;;;;28.75;27.25;;;;;5.71;70.09;101267.13;4994138;28;45668;-62
2022/12/07 10:00:16;;;;;;;;;33.50;31.25;;;;;5.79;70.28;101263.63;4976211;28;45476;-62
2022/12/07 10:02:42;;;;;;;;;31.50;29.00;;;;;5.84;70.43;101262.72;4994225;28;45553;-61
2022/12/07 10:05:18;;;;;;;;;32.25;26.75;;;;;5.89;70.31;101257.50;4994086;28;45672;-62
2022/12/07 10:07:43;;;;;;;;;24.25;23.25;;;;;5.95;70.09;101254.88;4993957;28;45544;-62
2022/12/07 10:10:15;;;;;;;;;34.50;30.00;;;;;6.03;70.21;101258.31;4994080;28;45524;-62
2022/12/07 10:13:20;;;;;;;;;31.25;30.50;;;;;6.15;70.32;101252.13;4994127;28;45453;-62
2022/12/07 10:15:51;;;;;;;;;30.25;28.75;;;;;6.20;70.02;101243.38;4932672;28;45855;-62
2022/12/07 10:18:52;;;;;;;;;32.50;27.75;;;;;6.29;70.00;101252.94;4985213;28;45532;-62
2022/12/07 10:21:25;;;;;;;;;26.50;21.25;;;;;6.36;70.10;101251.13;4933581;28;45531;-62
2022/12/07 10:24:03;;;;;;;;;31.50;28.50;;;;;6.39;70.15;101254.59;4985087;28;45700;-61
2022/12/07 10:26:35;;;;;;;;;31.75;28.25;;;;;6.41;69.93;101249.34;4993727;28;46962;-62
2022/12/07 10:29:23;;;;;;;;;26.25;26.25;;;;;6.43;70.54;101246.72;4994245;28;45429;-62
2022/12/07 10:32:03;;;;;;;;;30.50;28.00;;;;;6.46;70.11;101241.47;4972628;28;45578;-63
2022/12/07 10:34:32;;;;;;;;;31.50;24.50;;;;;6.48;69.88;101235.38;4990343;28;45640;-61
2022/12/07 10:37:27;;;;;;;;;28.50;25.50;;;;;6.52;70.33;101234.44;4986451;28;46000;-62
2022/12/07 10:39:57;;;;;;;;;42.50;31.25;;;;;6.55;69.94;101236.16;4972111;28;45663;-61
2022/12/07 10:42:25;;;;;;;;;30.00;26.25;;;;;6.58;69.17;101223.97;4992641;28;45470;-65
2022/12/07 10:45:16;;;;;;;;;27.50;25.50;;;;;6.63;69.42;101219.53;4994215;28;45464;-62
2022/12/07 10:47:56;;;;;;;;;30.25;28.75;;;;;6.68;69.55;101221.25;4993100;28;45599;-60
2022/12/07 10:50:43;;;;;;;;;31.00;28.75;;;;;6.69;69.89;101218.63;4993763;28;45507;-66
2022/12/07 10:53:49;;;;;;;;;24.00;22.00;;;;;6.74;69.26;101208.97;4976653;28;45540;-64
2022/12/07 10:56:26;;;;;;;;;28.50;28.50;;;;;6.80;69.17;101210.69;4894531;29;45517;-65
2022/12/07 10:58:51;;;;;;;;;32.00;27.50;;;;;6.85;69.72;101195.78;4890812;29;45574;-60
2022/12/07 11:01:29;;;;;;;;;25.00;23.75;;;;;6.89;69.06;101192.28;4937768;28;45492;-58
2022/12/07 11:04:03;;;;;;;;;28.50;24.00;;;;;6.91;69.11;101190.53;4992198;28;45516;-59
2022/12/07 11:06:54;;;;;;;;;23.75;22.50;;;;;6.92;69.11;101183.53;4994037;28;45580;-59
2022/12/07 11:09:54;;;;;;;;;27.50;27.50;;;;;6.92;68.34;101189.63;4993411;28;46279;-59
2022/12/07 11:12:51;;;;;;;;;25.75;24.00;;;;;6.90;69.09;101188.75;4994563;28;45540;-59
2022/12/07 11:15:37;;;;;;;;;28.50;26.00;;;;;6.88;68.52;101184.44;4998947;28;45472;-58
2022/12/07 11:18:09;;;;;;;;;29.25;28.25;;;;;6.83;69.04;101180.13;4986707;28;45586;-59
2022/12/07 11:20:34;;;;;;;;;26.75;24.00;;;;;6.84;69.03;101183.59;4993837;28;45542;-61
2022/12/07 11:23:02;;;;;;;;;30.75;27.50;;;;;6.83;69.05;101172.28;4994616;28;45545;-59
2022/12/07 11:25:52;;;;;;;;;32.75;29.50;;;;;6.80;69.47;101166.25;4997354;28;45504;-59
2022/12/07 11:28:23;;;;;;;;;30.75;28.00;;;;;6.79;68.85;101160.13;4996834;28;45507;-59
2022/12/07 11:30:53;;;;;;;;;31.75;27.75;;;;;6.79;69.68;101160.13;4991845;28;45520;-60